createdAt,value
2022-09-17T00:00:11.766Z,11.2
2022-09-17T00:02:37.721Z,11.1
2022-09-17T00:05:03.904Z,11.1
2022-09-17T00:07:29.901Z,11.1
2022-09-17T00:09:55.071Z,11
2022-09-17T00:12:21.148Z,11
2022-09-17T00:14:47.202Z,11
2022-09-17T00:17:13.291Z,11
2022-09-17T00:19:39.396Z,11
2022-09-17T00:22:05.594Z,10.9
2022-09-17T00:24:31.675Z,10.9
2022-09-17T00:26:57.677Z,10.9
2022-09-17T00:29:23.808Z,10.9
2022-09-17T00:31:51.254Z,11
2022-09-17T00:34:16.106Z,11
2022-09-17T00:36:42.211Z,11
2022-09-17T00:39:08.232Z,11.1
2022-09-17T00:41:33.358Z,11.1
2022-09-17T00:43:59.364Z,11.1
2022-09-17T00:46:25.590Z,11.1
2022-09-17T00:48:51.655Z,11.1
2022-09-17T00:51:17.804Z,11.2
2022-09-17T00:53:43.820Z,11.2
2022-09-17T00:56:09.995Z,11.2
2022-09-17T00:58:35.953Z,11.2
2022-09-17T01:01:02.210Z,11.2
2022-09-17T01:03:28.131Z,11.2
2022-09-17T01:05:54.342Z,11.2
2022-09-17T01:08:20.341Z,11.2
2022-09-17T01:10:46.525Z,11.2
2022-09-17T01:13:11.650Z,11.2
2022-09-17T01:15:37.756Z,11.2
2022-09-17T01:18:03.878Z,11.2
2022-09-17T01:20:29.929Z,11.2
2022-09-17T01:22:55.898Z,11.1
2022-09-17T01:25:22.009Z,11.1
2022-09-17T01:27:48.103Z,11.1
2022-09-17T01:30:14.342Z,11
2022-09-17T01:32:40.279Z,11
2022-09-17T01:35:06.527Z,11.1
2022-09-17T01:37:32.613Z,11.1
2022-09-17T01:39:58.573Z,11.1
2022-09-17T01:42:24.831Z,11.1
2022-09-17T01:44:49.901Z,11.1
2022-09-17T01:47:16.007Z,11.2
2022-09-17T01:49:42.081Z,11.2
2022-09-17T01:52:08.200Z,11.2
2022-09-17T01:54:34.257Z,11.2
2022-09-17T01:57:00.398Z,11.2
2022-09-17T01:59:26.483Z,11.2
2022-09-17T02:01:52.549Z,11.2
2022-09-17T02:04:18.675Z,11.3
2022-09-17T02:06:44.635Z,11.3
2022-09-17T02:09:10.745Z,11.3
2022-09-17T02:11:36.930Z,11.3
2022-09-17T02:14:02.976Z,11.3
2022-09-17T02:16:28.175Z,11.3
2022-09-17T02:18:54.207Z,11.3
2022-09-17T02:21:20.242Z,11.3
2022-09-17T02:23:46.318Z,11.3
2022-09-17T02:26:12.578Z,11.3
2022-09-17T02:28:38.651Z,11.2
2022-09-17T02:31:04.733Z,11.2
2022-09-17T02:33:30.794Z,11.1
2022-09-17T02:35:56.809Z,11.1
2022-09-17T02:38:23.004Z,11
2022-09-17T02:40:48.992Z,11
2022-09-17T02:43:15.201Z,10.9
2022-09-17T02:45:41.298Z,10.9
2022-09-17T02:48:06.388Z,10.8
2022-09-17T02:50:32.522Z,10.8
2022-09-17T02:52:58.860Z,10.7
2022-09-17T02:55:24.608Z,10.7
2022-09-17T02:57:50.794Z,10.7
2022-09-17T03:00:16.895Z,10.7
2022-09-17T03:02:42.968Z,10.7
2022-09-17T03:05:09.066Z,10.7
2022-09-17T03:07:35.069Z,10.7
2022-09-17T03:10:01.158Z,10.7
2022-09-17T03:12:27.379Z,10.6
2022-09-17T03:14:53.467Z,10.6
2022-09-17T03:17:19.463Z,10.6
2022-09-17T03:19:44.668Z,10.5
2022-09-17T03:22:10.651Z,10.5
2022-09-17T03:24:36.880Z,10.5
2022-09-17T03:27:02.905Z,10.5
2022-09-17T03:29:28.922Z,10.6
2022-09-17T03:31:55.111Z,10.6
2022-09-17T03:34:21.212Z,10.6
2022-09-17T03:36:47.208Z,10.6
2022-09-17T03:39:13.419Z,10.6
2022-09-17T03:41:39.500Z,10.6
2022-09-17T03:44:05.518Z,10.6
2022-09-17T03:46:31.667Z,10.6
2022-09-17T03:48:57.813Z,10.7
2022-09-17T03:51:22.900Z,10.7
2022-09-17T03:53:48.897Z,10.7
2022-09-17T03:56:15.023Z,10.7
2022-09-17T03:58:41.109Z,10.7
2022-09-17T04:01:07.322Z,10.7
2022-09-17T04:03:32.302Z,10.7
2022-09-17T04:05:58.496Z,10.7
2022-09-17T04:08:24.621Z,10.7
2022-09-17T04:10:50.727Z,10.7
2022-09-17T04:13:16.690Z,10.7
2022-09-17T04:15:42.907Z,10.7
2022-09-17T04:18:08.869Z,10.7
2022-09-17T04:20:35.053Z,10.7
2022-09-17T04:23:01.067Z,10.7
2022-09-17T04:25:27.273Z,10.7
2022-09-17T04:27:53.333Z,10.7
2022-09-17T04:30:19.368Z,10.7
2022-09-17T04:32:45.587Z,10.8
2022-09-17T04:35:10.654Z,10.8
2022-09-17T04:37:36.798Z,10.8
2022-09-17T04:40:02.879Z,10.8
2022-09-17T04:42:28.959Z,10.8
2022-09-17T04:44:54.931Z,10.9
2022-09-17T04:47:21.153Z,10.9
2022-09-17T04:49:47.121Z,10.9
2022-09-17T04:52:13.261Z,10.9
2022-09-17T04:54:39.305Z,10.9
2022-09-17T04:57:05.517Z,10.9
2022-09-17T04:59:31.636Z,10.9
2022-09-17T05:01:57.695Z,10.9
2022-09-17T05:04:23.736Z,10.9
2022-09-17T05:06:48.806Z,10.9
2022-09-17T05:09:15.057Z,10.9
2022-09-17T05:11:41.133Z,10.9
2022-09-17T05:14:07.080Z,10.9
2022-09-17T05:16:33.184Z,10.9
2022-09-17T05:18:59.341Z,10.9
2022-09-17T05:21:25.441Z,10.9
2022-09-17T05:23:51.508Z,10.9
2022-09-17T05:26:17.679Z,10.9
2022-09-17T05:28:43.769Z,10.9
2022-09-17T05:31:09.895Z,10.9
2022-09-17T05:33:35.853Z,10.9
2022-09-17T05:36:01.954Z,10.9
2022-09-17T05:38:27.173Z,10.9
2022-09-17T05:40:53.261Z,10.9
2022-09-17T05:43:19.251Z,10.9
2022-09-17T05:45:45.463Z,10.9
2022-09-17T05:48:11.568Z,10.9
2022-09-17T05:50:37.569Z,10.9
2022-09-17T05:53:03.644Z,10.9
2022-09-17T05:55:29.801Z,10.9
2022-09-17T05:57:55.916Z,11
2022-09-17T06:00:21.907Z,11
2022-09-17T06:02:48.005Z,11
2022-09-17T06:05:14.156Z,11
2022-09-17T06:07:40.266Z,11
2022-09-17T06:10:05.378Z,11
2022-09-17T06:12:31.528Z,11
2022-09-17T06:14:57.638Z,11.1
2022-09-17T06:17:23.684Z,11.1
2022-09-17T06:19:49.802Z,11.2
2022-09-17T06:22:15.914Z,11.2
2022-09-17T06:24:42.015Z,11.2
2022-09-17T06:27:08.129Z,11.3
2022-09-17T06:29:34.223Z,11.3
2022-09-17T06:32:00.273Z,11.3
2022-09-17T06:34:26.331Z,11.3
2022-09-17T06:36:52.522Z,11.3
2022-09-17T06:39:18.473Z,11.3
2022-09-17T06:41:43.597Z,11.3
2022-09-17T06:44:09.732Z,11.3
2022-09-17T06:46:35.763Z,11.3
2022-09-17T06:49:01.856Z,11.3
2022-09-17T06:51:27.970Z,11.2
2022-09-17T06:53:54.079Z,11.2
2022-09-17T06:56:20.145Z,11.2
2022-09-17T06:58:46.247Z,11.2
2022-09-17T07:01:12.431Z,11.2
2022-09-17T07:03:38.486Z,11.2
2022-09-17T07:06:04.567Z,11.2
2022-09-17T07:08:30.617Z,11.2
2022-09-17T07:10:56.716Z,11.2
2022-09-17T07:13:21.831Z,11.2
2022-09-17T07:15:47.930Z,11.3
2022-09-17T07:18:14.017Z,11.3
2022-09-17T07:20:40.114Z,11.3
2022-09-17T07:23:06.293Z,11.3
2022-09-17T07:25:32.304Z,11.3
2022-09-17T07:27:58.412Z,11.2
2022-09-17T07:30:24.499Z,11.2
2022-09-17T07:32:50.583Z,11.2
2022-09-17T07:35:16.714Z,11.1
2022-09-17T07:37:42.777Z,11
2022-09-17T07:40:08.872Z,10.9
2022-09-17T07:42:34.980Z,10.8
2022-09-17T07:45:00.093Z,10.7
2022-09-17T07:47:26.177Z,10.7
2022-09-17T07:49:52.276Z,10.7
2022-09-17T07:52:18.365Z,10.7
2022-09-17T07:54:44.475Z,10.6
2022-09-17T07:57:10.555Z,10.6
2022-09-17T07:59:36.661Z,10.5
2022-09-17T08:02:02.767Z,10.5
2022-09-17T08:04:28.847Z,10.5
2022-09-17T08:06:54.958Z,10.5
2022-09-17T08:09:21.035Z,10.5
2022-09-17T08:11:47.136Z,10.5
2022-09-17T08:14:13.230Z,10.4
2022-09-17T08:16:38.352Z,10.4
2022-09-17T08:19:04.452Z,10.4
2022-09-17T08:21:30.536Z,10.4
2022-09-17T08:23:56.641Z,10.4
2022-09-17T08:26:22.723Z,10.5
2022-09-17T08:28:48.827Z,10.5
2022-09-17T08:31:14.915Z,10.6
2022-09-17T08:33:41.043Z,10.6
2022-09-17T08:36:07.108Z,10.7
2022-09-17T08:38:33.208Z,10.7
2022-09-17T08:40:59.294Z,10.8
2022-09-17T08:43:25.412Z,10.8
2022-09-17T08:45:51.487Z,10.8
2022-09-17T08:48:16.600Z,10.8
2022-09-17T08:50:42.692Z,10.8
2022-09-17T08:53:08.785Z,10.9
2022-09-17T08:55:35.025Z,10.9
2022-09-17T08:58:01.069Z,10.9
2022-09-17T09:00:27.073Z,11
2022-09-17T09:02:53.177Z,11.1
2022-09-17T09:05:19.257Z,11.2
2022-09-17T09:07:45.382Z,11.2
2022-09-17T09:10:11.463Z,11.4
2022-09-17T09:12:37.562Z,11.5
2022-09-17T09:15:03.686Z,11.6
2022-09-17T09:17:29.744Z,11.7
2022-09-17T09:19:54.872Z,11.7
2022-09-17T09:22:20.970Z,11.8
2022-09-17T09:24:47.055Z,11.8
2022-09-17T09:27:13.137Z,11.9
2022-09-17T09:29:39.240Z,12
2022-09-17T09:32:05.354Z,12
2022-09-17T09:34:31.431Z,12.1
2022-09-17T09:36:57.514Z,12.1
2022-09-17T09:39:23.666Z,12.1
2022-09-17T09:41:49.709Z,12.1
2022-09-17T09:44:15.824Z,12.2
2022-09-17T09:46:41.904Z,12.3
2022-09-17T09:49:08.013Z,12.4
2022-09-17T09:51:33.153Z,12.4
2022-09-17T09:53:59.203Z,12.5
2022-09-17T09:56:25.477Z,12.5
2022-09-17T09:58:51.582Z,12.5
2022-09-17T10:01:17.504Z,12.6
2022-09-17T10:03:43.708Z,12.6
2022-09-17T10:06:09.713Z,12.6
2022-09-17T10:08:35.775Z,12.6
2022-09-17T10:11:01.878Z,12.6
2022-09-17T10:13:27.987Z,12.7
2022-09-17T10:15:54.072Z,12.7
2022-09-17T10:18:20.185Z,12.9
2022-09-17T10:20:46.278Z,13
2022-09-17T10:23:11.370Z,13.1
2022-09-17T10:25:37.501Z,13.2
2022-09-17T10:28:03.572Z,13.2
2022-09-17T10:30:29.677Z,13.3
2022-09-17T10:32:55.755Z,13.5
2022-09-17T10:35:21.851Z,13.6
2022-09-17T10:37:47.940Z,13.7
2022-09-17T10:40:14.028Z,13.8
2022-09-17T10:42:40.132Z,13.9
2022-09-17T10:45:06.260Z,14
2022-09-17T10:47:32.320Z,14.2
2022-09-17T10:49:58.408Z,14.3
2022-09-17T10:52:24.514Z,14.5
2022-09-17T10:54:49.628Z,14.6
2022-09-17T10:57:15.721Z,14.6
2022-09-17T10:59:41.819Z,14.7
2022-09-17T11:02:07.909Z,14.6
2022-09-17T11:04:34.004Z,14.7
2022-09-17T11:07:00.104Z,14.6
2022-09-17T11:09:26.202Z,14.6
2022-09-17T11:11:52.303Z,14.5
2022-09-17T11:14:18.394Z,14.5
2022-09-17T11:16:44.474Z,14.5
2022-09-17T11:19:10.579Z,14.6
2022-09-17T11:21:36.667Z,14.6
2022-09-17T11:26:28.862Z,14.9
2022-09-17T11:28:53.976Z,15
2022-09-17T11:31:20.063Z,15.2
2022-09-17T11:33:46.198Z,15.4
2022-09-17T11:36:12.286Z,15.4
2022-09-17T11:38:38.357Z,15.5
2022-09-17T11:41:04.451Z,15.5
2022-09-17T11:43:30.551Z,15.6
2022-09-17T11:45:56.641Z,15.7
2022-09-17T11:48:22.758Z,15.7
2022-09-17T11:50:48.846Z,15.7
2022-09-17T11:53:14.928Z,15.8
2022-09-17T11:55:41.035Z,15.8
2022-09-17T11:58:07.114Z,15.8
2022-09-17T12:00:32.238Z,15.8
2022-09-17T12:02:58.316Z,15.8
2022-09-17T12:05:24.418Z,15.7
2022-09-17T12:07:50.507Z,15.5
2022-09-17T12:10:16.613Z,15.2
2022-09-17T12:12:41.737Z,15
2022-09-17T12:15:07.818Z,15
2022-09-17T12:17:33.916Z,14.9
2022-09-17T12:20:00.019Z,14.8
2022-09-17T12:22:26.121Z,14.7
2022-09-17T12:24:52.216Z,14.5
2022-09-17T12:27:18.304Z,14.4
2022-09-17T12:29:44.412Z,14.3
2022-09-17T12:32:10.498Z,14.4
2022-09-17T12:34:36.594Z,14.4
2022-09-17T12:37:02.679Z,14.5
2022-09-17T12:39:28.788Z,14.6
2022-09-17T12:41:54.884Z,14.7
2022-09-17T12:44:20.057Z,14.8
2022-09-17T12:46:46.095Z,14.9
2022-09-17T12:49:12.180Z,15
2022-09-17T12:51:38.291Z,15
2022-09-17T12:54:04.388Z,14.9
2022-09-17T12:56:30.564Z,14.9
2022-09-17T12:58:56.589Z,14.8
2022-09-17T13:01:22.659Z,14.8
2022-09-17T13:03:48.773Z,14.9
2022-09-17T13:06:14.852Z,15
2022-09-17T13:08:40.961Z,15.2
2022-09-17T13:11:07.042Z,15.4
2022-09-17T13:13:33.282Z,15.6
2022-09-17T13:15:58.256Z,15.7
2022-09-17T13:18:24.353Z,15.7
2022-09-17T13:20:50.556Z,15.6
2022-09-17T13:23:16.540Z,15.6
2022-09-17T13:25:42.695Z,15.6
2022-09-17T13:28:08.869Z,15.6
2022-09-17T13:30:34.809Z,15.6
2022-09-17T13:33:01.019Z,15.5
2022-09-17T13:35:27.123Z,15.6
2022-09-17T13:37:53.112Z,15.6
2022-09-17T13:40:19.403Z,15.6
2022-09-17T13:42:45.279Z,15.6
2022-09-17T13:45:11.393Z,15.7
2022-09-17T13:47:36.636Z,15.6
2022-09-17T13:50:02.589Z,15.6
2022-09-17T13:52:28.821Z,15.6
2022-09-17T13:54:54.936Z,15.6
2022-09-17T13:57:20.867Z,15.5
2022-09-17T13:59:47.125Z,15.4
2022-09-17T14:02:13.189Z,15.4
2022-09-17T14:04:39.302Z,15.4
2022-09-17T14:07:05.389Z,15.4
2022-09-17T14:09:31.485Z,15.5
2022-09-17T14:11:57.590Z,15.8
2022-09-17T14:14:23.687Z,16.1
2022-09-17T14:16:49.640Z,16.6
2022-09-17T14:19:14.869Z,17
2022-09-17T14:21:40.962Z,17.4
2022-09-17T14:24:07.092Z,17.6
2022-09-17T14:26:33.151Z,17.5
2022-09-17T14:28:59.225Z,17.4
2022-09-17T14:31:25.262Z,17.3
2022-09-17T14:33:51.316Z,17.4
2022-09-17T14:36:17.592Z,17.4
2022-09-17T14:38:43.665Z,17.4
2022-09-17T14:41:09.755Z,17.5
2022-09-17T14:43:35.831Z,17.6
2022-09-17T14:46:01.953Z,17.9
2022-09-17T14:48:28.053Z,18.3
2022-09-17T14:50:53.157Z,18.5
2022-09-17T14:53:19.252Z,18.6
2022-09-17T14:55:45.176Z,18.6
2022-09-17T14:58:11.433Z,18.6
2022-09-17T15:00:37.521Z,18.7
2022-09-17T15:03:03.471Z,18.6
2022-09-17T15:05:29.734Z,18.4
2022-09-17T15:07:55.653Z,18.2
2022-09-17T15:10:21.911Z,17.9
2022-09-17T15:12:48.004Z,17.7
2022-09-17T15:15:14.106Z,17.5
2022-09-17T15:17:40.167Z,17.4
2022-09-17T15:20:06.275Z,17.3
2022-09-17T15:22:31.391Z,17.1
2022-09-17T15:24:57.415Z,17
2022-09-17T15:27:23.612Z,16.8
2022-09-17T15:29:49.690Z,16.7
2022-09-17T15:32:15.632Z,16.5
2022-09-17T15:34:41.883Z,16.4
2022-09-17T15:37:08.000Z,16.3
2022-09-17T15:39:34.083Z,16.3
2022-09-17T15:42:00.163Z,16.2
2022-09-17T15:44:26.107Z,16.1
2022-09-17T15:46:52.255Z,15.9
2022-09-17T15:49:18.291Z,15.7
2022-09-17T15:51:44.519Z,15.6
2022-09-17T15:54:09.506Z,15.4
2022-09-17T15:56:35.728Z,15.3
2022-09-17T15:59:01.696Z,15
2022-09-17T16:01:27.881Z,14.2
2022-09-17T16:03:53.868Z,13.6
2022-09-17T16:06:20.091Z,13.3
2022-09-17T16:08:46.232Z,13
2022-09-17T16:11:12.276Z,12.9
2022-09-17T16:13:38.400Z,12.8
2022-09-17T16:16:04.485Z,12.9
2022-09-17T16:18:30.552Z,12.9
2022-09-17T16:20:56.540Z,12.8
2022-09-17T16:23:22.762Z,12.7
2022-09-17T16:25:47.925Z,12.6
2022-09-17T16:28:13.986Z,12.5
2022-09-17T16:30:40.052Z,12.3
2022-09-17T16:33:06.180Z,12.2
2022-09-17T16:35:32.139Z,12
2022-09-17T16:37:58.301Z,11.9
2022-09-17T16:40:24.426Z,11.8
2022-09-17T16:42:50.470Z,11.8
2022-09-17T16:45:16.526Z,11.7
2022-09-17T16:47:42.732Z,11.7
2022-09-17T16:50:08.747Z,11.7
2022-09-17T16:52:34.881Z,11.7
2022-09-17T16:55:00.998Z,11.7
2022-09-17T16:57:26.132Z,11.7
2022-09-17T16:59:52.212Z,11.6
2022-09-17T17:02:18.190Z,11.6
2022-09-17T17:04:44.335Z,11.5
2022-09-17T17:07:10.495Z,11.5
2022-09-17T17:09:36.518Z,11.4
2022-09-17T17:12:02.732Z,11.4
2022-09-17T17:14:28.818Z,11.4
2022-09-17T17:19:20.998Z,11.4
2022-09-17T17:21:47.091Z,11.4
2022-09-17T17:24:13.195Z,11.4
2022-09-17T17:26:39.254Z,11.4
2022-09-17T17:29:04.408Z,11.4
2022-09-17T17:31:30.503Z,11.4
2022-09-17T17:33:56.530Z,11.4
2022-09-17T17:36:22.569Z,11.4
2022-09-17T17:38:48.691Z,11.4
2022-09-17T17:41:14.765Z,11.2
2022-09-17T17:43:40.972Z,11
2022-09-17T17:46:07.045Z,10.8
2022-09-17T17:48:33.130Z,10.7
2022-09-17T17:50:59.199Z,10.6
2022-09-17T17:53:25.365Z,10.5
2022-09-17T17:55:51.414Z,10.4
2022-09-17T17:58:17.534Z,10.4
2022-09-17T18:00:42.625Z,10.3
2022-09-17T18:03:08.635Z,10.3
2022-09-17T18:05:34.858Z,10.3
2022-09-17T18:08:00.829Z,10.3
2022-09-17T18:10:26.957Z,10.3
2022-09-17T18:12:53.040Z,10.2
2022-09-17T18:15:19.231Z,10.2
2022-09-17T18:17:45.294Z,10.2
2022-09-17T18:20:11.306Z,10.2
2022-09-17T18:22:37.462Z,10.2
2022-09-17T18:25:03.562Z,10.2
2022-09-17T18:27:29.725Z,10.2
2022-09-17T18:29:55.760Z,10.2
2022-09-17T18:32:20.923Z,10.2
2022-09-17T18:34:46.866Z,10.2
2022-09-17T18:37:12.971Z,10.3
2022-09-17T18:39:39.187Z,10.3
2022-09-17T18:42:05.311Z,10.3
2022-09-17T18:44:31.248Z,10.4
2022-09-17T18:46:57.489Z,10.4
2022-09-17T18:49:23.448Z,10.5
2022-09-17T18:51:49.597Z,10.5
2022-09-17T18:54:15.656Z,10.5
2022-09-17T18:56:41.802Z,10.5
2022-09-17T18:59:07.831Z,10.5
2022-09-17T19:01:33.984Z,10.5
2022-09-17T19:03:59.150Z,10.4
2022-09-17T19:06:25.271Z,10.4
2022-09-17T19:08:51.319Z,10.4
2022-09-17T19:11:17.387Z,10.3
2022-09-17T19:13:43.588Z,10.3
2022-09-17T19:16:09.643Z,10.3
2022-09-17T19:18:35.602Z,10.3
2022-09-17T19:21:01.804Z,10.3
2022-09-17T19:23:27.899Z,10.3
2022-09-17T19:25:53.981Z,10.3
2022-09-17T19:28:20.085Z,10.3
2022-09-17T19:30:46.076Z,10.2
2022-09-17T19:33:12.263Z,10.3
2022-09-17T19:35:37.286Z,10.3
2022-09-17T19:38:03.427Z,10.2
2022-09-17T19:40:29.584Z,10.2
2022-09-17T19:42:55.574Z,10.2
2022-09-17T19:45:21.810Z,10.1
2022-09-17T19:47:47.893Z,10.1
2022-09-17T19:50:13.891Z,10
2022-09-17T19:52:39.946Z,10
2022-09-17T19:55:06.053Z,9.9
2022-09-17T19:57:32.263Z,9.9
2022-09-17T19:59:58.298Z,9.8
2022-09-17T20:02:24.507Z,9.7
2022-09-17T20:04:50.422Z,9.7
2022-09-17T20:07:15.678Z,9.6
2022-09-17T20:09:41.729Z,9.5
2022-09-17T20:12:07.865Z,9.4
2022-09-17T20:14:33.962Z,9.3
2022-09-17T20:16:59.910Z,9.3
2022-09-17T20:19:26.013Z,9.2
2022-09-17T20:21:51.131Z,9.2
2022-09-17T20:24:17.227Z,9.1
2022-09-17T20:26:43.363Z,9.1
2022-09-17T20:29:09.532Z,9.1
2022-09-17T20:31:35.630Z,9.1
2022-09-17T20:34:01.660Z,9
2022-09-17T20:36:27.686Z,9
2022-09-17T20:38:53.790Z,9
2022-09-17T20:41:20.007Z,9.1
2022-09-17T20:43:46.104Z,9.1
2022-09-17T20:46:12.099Z,9.1
2022-09-17T20:48:38.188Z,9.2
2022-09-17T20:51:04.259Z,9.2
2022-09-17T20:53:29.428Z,9.3
2022-09-17T20:55:55.471Z,9.3
2022-09-17T20:58:21.576Z,9.3
2022-09-17T21:00:47.702Z,9.3
2022-09-17T21:03:13.766Z,9.3
2022-09-17T21:05:39.880Z,9.3
2022-09-17T21:08:06.027Z,9.2
2022-09-17T21:10:32.057Z,9.2
2022-09-17T21:12:58.143Z,9.2
2022-09-17T21:15:24.240Z,9.1
2022-09-17T21:17:50.375Z,9.1
2022-09-17T21:20:16.549Z,9.1
2022-09-17T21:22:42.531Z,9.1
2022-09-17T21:25:07.668Z,9
2022-09-17T21:27:33.743Z,9
2022-09-17T21:29:59.819Z,9
2022-09-17T21:32:25.946Z,9
2022-09-17T21:34:52.027Z,9
2022-09-17T21:37:18.127Z,9
2022-09-17T21:39:44.208Z,9
2022-09-17T21:42:10.334Z,9
2022-09-17T21:44:36.394Z,9
2022-09-17T21:47:02.497Z,9.1
2022-09-17T21:49:28.603Z,9.1
2022-09-17T21:51:54.689Z,9.1
2022-09-17T21:54:20.786Z,9.1
2022-09-17T21:56:45.914Z,9.1
2022-09-17T21:59:11.987Z,9.1
2022-09-17T22:01:38.083Z,9.1
2022-09-17T22:04:04.181Z,9.1
2022-09-17T22:06:30.268Z,9.1
2022-09-17T22:08:56.367Z,9.2
2022-09-17T22:11:22.467Z,9.2
2022-09-17T22:13:48.595Z,9.2
2022-09-17T22:16:14.666Z,9.3
2022-09-17T22:18:40.760Z,9.3
2022-09-17T22:21:06.857Z,9.4
2022-09-17T22:23:32.941Z,9.4
2022-09-17T22:25:59.040Z,9.5
2022-09-17T22:28:24.141Z,9.5
2022-09-17T22:30:50.253Z,9.5
2022-09-17T22:33:16.347Z,9.5
2022-09-17T22:35:42.472Z,9.6
2022-09-17T22:38:08.528Z,9.6
2022-09-17T22:40:34.627Z,9.6
2022-09-17T22:43:00.733Z,9.6
2022-09-17T22:45:26.814Z,9.6
2022-09-17T22:47:52.917Z,9.6
2022-09-17T22:50:19.004Z,9.6
2022-09-17T22:52:45.107Z,9.6
2022-09-17T22:55:11.211Z,9.6
2022-09-17T22:57:37.291Z,9.6
2022-09-17T23:00:02.401Z,9.6
2022-09-17T23:02:28.493Z,9.6
2022-09-17T23:04:54.600Z,9.6
2022-09-17T23:07:20.701Z,9.6
2022-09-17T23:09:46.786Z,9.6
2022-09-17T23:12:12.885Z,9.6
2022-09-17T23:14:38.985Z,9.6
2022-09-17T23:17:05.066Z,9.6
2022-09-17T23:19:31.161Z,9.6
2022-09-17T23:21:57.269Z,9.6
2022-09-17T23:24:23.350Z,9.6
2022-09-17T23:26:49.445Z,9.6
2022-09-17T23:29:15.546Z,9.7
2022-09-17T23:31:40.654Z,9.7
2022-09-17T23:34:06.764Z,9.7
2022-09-17T23:36:32.851Z,9.7
2022-09-17T23:38:58.975Z,9.8
2022-09-17T23:41:25.041Z,9.8
2022-09-17T23:43:51.146Z,9.8
2022-09-17T23:46:17.233Z,9.8
2022-09-17T23:48:43.394Z,9.8
2022-09-17T23:51:09.421Z,9.8
2022-09-17T23:53:35.528Z,9.8
2022-09-17T23:56:01.683Z,9.8
2022-09-17T23:58:27.716Z,9.8
